Time;durP1;ratioP1;P1;durP2;ratioP2;P2;SDS_P1;SDS_P2;PMS_P1;PMS_P2;Temp;Humidity;BMP_temperature;BMP_pressure;BME280_temperature;BME280_humidity;BME280_pressure;Samples;Min_cycle;Max_cycle;Signal;HPM_P1;HPM_P2
2021/05/19 00:01:12;;;;;;;4.43;1.30;;;;;;;11.86;100.00;101492.14;1819648;79;26286;-73
2021/05/19 00:03:42;;;;;;;5.87;1.70;;;;;;;11.81;100.00;101495.75;1819648;79;26753;-73
2021/05/19 00:06:13;;;;;;;2.50;1.50;;;;;;;11.82;100.00;101489.63;1824754;78;26200;-74
2021/05/19 00:08:43;;;;;;;2.90;1.30;;;;;;;11.81;100.00;101486.56;1819692;79;26753;-74
2021/05/19 00:11:13;;;;;;;7.00;1.30;;;;;;;11.75;100.00;101480.19;1819656;79;26714;-73
2021/05/19 00:13:43;;;;;;;8.80;1.87;;;;;;;11.70;100.00;101482.92;1819713;79;26236;-73
2021/05/19 00:16:13;;;;;;;3.13;1.47;;;;;;;11.70;100.00;101483.48;1819698;79;26287;-73
2021/05/19 00:18:43;;;;;;;3.70;1.97;;;;;;;11.68;100.00;101484.33;1819765;79;26323;-73
2021/05/19 00:21:13;;;;;;;3.20;1.37;;;;;;;11.64;100.00;101486.80;1819762;79;26286;-72
2021/05/19 00:23:43;;;;;;;2.53;1.30;;;;;;;11.60;100.00;101485.69;1819810;79;26227;-73
2021/05/19 00:26:12;;;;;;;3.23;1.47;;;;;;;11.58;100.00;101487.09;1819675;79;26231;-73
2021/05/19 00:28:45;;;;;;;3.73;1.53;;;;;;;11.59;100.00;101488.22;1819809;79;26322;-73
2021/05/19 00:31:17;;;;;;;2.93;1.47;;;;;;;11.63;100.00;101488.49;1819996;79;26233;-73
2021/05/19 00:33:45;;;;;;;3.83;1.50;;;;;;;11.51;100.00;101487.92;1819667;77;26224;-73
2021/05/19 00:36:15;;;;;;;3.90;1.67;;;;;;;11.49;100.00;101481.78;1819763;79;26291;-73
2021/05/19 00:38:45;;;;;;;6.03;1.70;;;;;;;11.46;100.00;101484.58;1819701;79;26302;-73
2021/05/19 00:41:15;;;;;;;6.40;1.60;;;;;;;11.48;100.00;101492.08;1819674;79;26623;-73
2021/05/19 00:43:45;;;;;;;1.53;1.37;;;;;;;11.41;100.00;101487.34;1819682;79;26274;-73
2021/05/19 00:46:15;;;;;;;4.83;1.63;;;;;;;11.41;100.00;101489.58;1819697;79;26278;-73
2021/05/19 00:48:45;;;;;;;4.07;1.30;;;;;;;11.39;100.00;101487.61;1822189;78;26290;-73
2021/05/19 00:51:14;;;;;;;2.37;1.20;;;;;;;11.32;100.00;101488.44;1819758;79;26782;-73
2021/05/19 00:53:44;;;;;;;5.70;1.70;;;;;;;11.41;100.00;101488.73;1819746;79;26309;-73
2021/05/19 00:56:15;;;;;;;3.50;1.60;;;;;;;11.39;100.00;101481.20;1819699;79;26647;-73
2021/05/19 00:58:46;;;;;;;2.93;1.37;;;;;;;11.43;100.00;101490.67;1819701;79;26663;-73
2021/05/19 01:01:16;;;;;;;4.00;1.73;;;;;;;11.39;100.00;101490.94;1819697;79;26362;-73
2021/05/19 01:03:49;;;;;;;2.87;1.37;;;;;;;11.34;100.00;101489.53;1819669;79;26359;-73
2021/05/19 01:06:23;;;;;;;2.70;1.40;;;;;;;11.35;100.00;101488.43;1819690;79;26717;-73
2021/05/19 01:11:39;;;;;;;5.23;1.63;;;;;;;11.44;100.00;101490.95;1810243;79;26236;-73
2021/05/19 01:14:08;;;;;;;5.50;1.80;;;;;;;11.45;100.00;101484.84;1819798;79;26228;-72
2021/05/19 01:16:38;;;;;;;3.43;1.70;;;;;;;11.45;100.00;101491.25;1819778;79;26216;-73
2021/05/19 01:19:09;;;;;;;3.10;1.40;;;;;;;11.49;100.00;101485.41;1819862;79;26684;-73
2021/05/19 01:21:42;;;;;;;3.53;1.47;;;;;;;11.39;100.00;101485.38;1819801;79;26694;-73
2021/05/19 01:24:12;;;;;;;3.30;1.40;;;;;;;11.36;100.00;101495.67;1819787;79;26778;-73
2021/05/19 01:26:42;;;;;;;4.20;1.47;;;;;;;11.32;100.00;101486.20;1819648;79;26746;-73
2021/05/19 01:29:12;;;;;;;4.27;1.57;;;;;;;11.36;100.00;101483.99;1819656;79;26224;-73
2021/05/19 01:31:43;;;;;;;4.33;1.60;;;;;;;11.40;100.00;101488.45;1819557;79;26793;-72
2021/05/19 01:34:13;;;;;;;2.70;1.60;;;;;;;11.31;100.00;101481.75;1819704;78;26327;-72
2021/05/19 01:36:44;;;;;;;3.30;1.70;;;;;;;11.40;100.00;101485.66;1819621;79;26654;-73
2021/05/19 01:39:14;;;;;;;3.87;1.30;;;;;;;11.34;100.00;101487.59;1819731;79;26298;-72
2021/05/19 01:41:46;;;;;;;3.60;1.70;;;;;;;11.32;100.00;101489.83;1819786;79;26762;-73
2021/05/19 01:44:18;;;;;;;3.33;2.00;;;;;;;11.34;100.00;101488.14;1819718;79;26223;-73
2021/05/19 01:46:48;;;;;;;3.43;1.77;;;;;;;11.29;100.00;101490.94;1819709;79;26220;-73
2021/05/19 01:49:18;;;;;;;2.50;1.87;;;;;;;11.36;100.00;101480.38;1819619;79;26251;-73
2021/05/19 01:51:49;;;;;;;4.13;1.50;;;;;;;11.35;100.00;101484.26;1819633;79;26252;-73
2021/05/19 01:54:21;;;;;;;2.77;1.60;;;;;;;11.27;100.00;101486.19;1819578;79;26232;-73
2021/05/19 01:56:51;;;;;;;2.37;1.33;;;;;;;11.21;100.00;101481.74;1819704;79;26252;-73
2021/05/19 01:59:21;;;;;;;2.97;1.13;;;;;;;11.11;100.00;101475.59;1819623;79;26212;-73
2021/05/19 02:01:51;;;;;;;2.43;1.13;;;;;;;11.13;100.00;101471.97;1819733;79;26205;-73
2021/05/19 02:04:21;;;;;;;2.80;1.10;;;;;;;11.07;100.00;101473.63;1819626;79;26224;-73
2021/05/19 02:06:55;;;;;;;3.33;1.13;;;;;;;11.10;100.00;101473.91;1819610;79;26641;-73
2021/05/19 02:09:26;;;;;;;3.43;1.27;;;;;;;11.06;100.00;101471.40;1819245;79;26309;-73
2021/05/19 02:11:56;;;;;;;3.33;1.30;;;;;;;11.08;100.00;101469.75;1802934;79;26240;-73
2021/05/19 02:14:26;;;;;;;3.03;1.20;;;;;;;11.08;100.00;101469.16;1802886;79;26220;-73
2021/05/19 02:16:56;;;;;;;4.73;1.13;;;;;;;11.05;100.00;101467.49;1802833;79;26220;-73
2021/05/19 02:19:25;;;;;;;3.37;1.17;;;;;;;11.05;100.00;101461.94;1802894;79;26208;-73
2021/05/19 02:21:55;;;;;;;3.80;1.20;;;;;;;11.01;100.00;101464.43;1802822;79;26298;-73
2021/05/19 02:24:25;;;;;;;3.03;1.10;;;;;;;11.05;100.00;101467.49;1802904;79;26226;-72
2021/05/19 02:26:55;;;;;;;2.37;1.20;;;;;;;11.04;100.00;101464.45;1802830;79;26296;-73
2021/05/19 02:29:25;;;;;;;2.67;1.23;;;;;;;10.93;100.00;101463.57;1808325;79;26228;-73
2021/05/19 02:31:54;;;;;;;3.93;1.10;;;;;;;10.96;100.00;101469.41;1819691;79;26278;-72
2021/05/19 02:34:24;;;;;;;4.00;1.20;;;;;;;10.98;100.00;101464.14;1819691;79;26236;-73
2021/05/19 02:36:56;;;;;;;1.43;1.07;;;;;;;10.91;100.00;101461.64;1819730;79;26295;-73
2021/05/19 02:39:26;;;;;;;2.33;1.60;;;;;;;10.98;100.00;101462.75;1819738;79;26632;-73
2021/05/19 02:41:56;;;;;;;3.63;1.20;;;;;;;10.99;100.00;101461.10;1819713;79;26282;-73
2021/05/19 02:44:26;;;;;;;1.90;0.97;;;;;;;11.04;100.00;101461.67;1819741;79;26813;-73
2021/05/19 02:46:55;;;;;;;3.53;1.50;;;;;;;11.02;100.00;101461.94;1819763;79;26743;-73
2021/05/19 02:49:25;;;;;;;1.53;1.30;;;;;;;10.89;100.00;101460.51;1819702;79;26224;-73
2021/05/19 02:51:55;;;;;;;1.83;0.90;;;;;;;10.93;100.00;101460.80;1819693;79;26736;-73
2021/05/19 02:54:25;;;;;;;1.93;1.00;;;;;;;10.89;100.00;101462.45;1819757;79;26220;-73
2021/05/19 02:56:55;;;;;;;2.70;1.20;;;;;;;10.88;100.00;101464.39;1819769;79;26387;-73
2021/05/19 02:59:25;;;;;;;2.37;1.10;;;;;;;10.86;100.00;101468.01;1819744;79;26282;-73
2021/05/19 03:01:55;;;;;;;2.00;1.20;;;;;;;10.82;100.00;101466.88;1819725;79;26776;-73
2021/05/19 03:04:25;;;;;;;5.20;1.70;;;;;;;10.87;100.00;101470.20;1819679;79;26236;-72
2021/05/19 03:06:55;;;;;;;2.23;1.00;;;;;;;10.87;100.00;101467.43;1819685;79;26702;-73
2021/05/19 03:09:24;;;;;;;2.43;1.23;;;;;;;10.77;100.00;101472.41;1819754;79;26212;-73
2021/05/19 03:11:54;;;;;;;1.80;1.03;;;;;;;10.81;100.00;101471.31;1812605;79;26259;-73
2021/05/19 03:14:24;;;;;;;1.43;1.17;;;;;;;10.78;100.00;101465.72;1819723;79;26220;-73
2021/05/19 03:16:54;;;;;;;2.37;1.13;;;;;;;10.71;100.00;101467.09;1819767;79;26216;-73
2021/05/19 03:19:24;;;;;;;3.07;1.20;;;;;;;10.73;100.00;101469.06;1819703;79;26292;-73
2021/05/19 03:21:54;;;;;;;3.00;1.07;;;;;;;10.82;100.00;101468.27;1819762;79;26241;-73
2021/05/19 03:24:24;;;;;;;1.70;1.10;;;;;;;10.76;100.00;101467.12;1819696;79;26667;-73
2021/05/19 03:26:53;;;;;;;1.23;1.13;;;;;;;10.76;100.00;101467.12;1819788;79;26643;-73
2021/05/19 03:29:23;;;;;;;2.80;1.00;;;;;;;10.75;100.00;101473.77;1819648;79;26197;-73
2021/05/19 03:31:53;;;;;;;2.43;1.40;;;;;;;10.72;100.00;101471.00;1819785;79;26707;-73
2021/05/19 03:34:23;;;;;;;2.40;1.20;;;;;;;10.67;100.00;101475.69;1819776;79;26285;-73
2021/05/19 03:37:09;;;;;;;4.60;1.50;;;;;;;10.68;100.00;101472.65;1768001;81;33448;-73
2021/05/19 03:39:40;;;;;;;1.57;1.40;;;;;;;10.74;100.00;101477.10;1768598;81;26694;-73
2021/05/19 03:42:10;;;;;;;2.73;1.30;;;;;;;10.72;100.00;101475.72;1768367;81;26266;-73
2021/05/19 03:44:40;;;;;;;2.63;1.40;;;;;;;10.69;100.00;101472.94;1768405;81;26275;-73
2021/05/19 03:47:10;;;;;;;2.00;1.20;;;;;;;10.69;100.00;101472.94;1768517;81;26263;-73
2021/05/19 03:49:40;;;;;;;1.57;1.13;;;;;;;10.59;100.00;101475.66;1768430;81;26268;-73
2021/05/19 03:52:11;;;;;;;3.40;1.23;;;;;;;10.69;100.00;101477.11;1768458;81;26247;-73
2021/05/19 03:54:40;;;;;;;4.53;1.70;;;;;;;10.73;100.00;101471.84;1768481;81;26255;-73
2021/05/19 03:57:11;;;;;;;1.70;1.20;;;;;;;10.69;100.00;101477.11;1768431;81;26274;-73
2021/05/19 03:59:41;;;;;;;2.80;1.10;;;;;;;10.67;100.00;101482.62;1768423;81;26433;-73
2021/05/19 04:02:11;;;;;;;2.43;1.20;;;;;;;10.60;100.00;101479.27;1756934;79;932664;-73
2021/05/19 04:04:41;;;;;;;2.23;1.30;;;;;;;10.54;100.00;101483.12;1768424;81;26709;-73
2021/05/19 04:07:11;;;;;;;2.40;0.87;;;;;;;10.53;100.00;101481.44;1768578;81;26255;-73
2021/05/19 04:09:42;;;;;;;2.87;1.43;;;;;;;10.52;100.00;101484.80;1818243;79;26236;-73
2021/05/19 04:12:11;;;;;;;2.97;1.07;;;;;;;10.55;100.00;101487.02;1816480;79;26304;-73
2021/05/19 04:14:41;;;;;;;3.00;1.07;;;;;;;10.56;100.00;101494.81;1813661;79;26220;-73
2021/05/19 04:17:11;;;;;;;2.30;1.30;;;;;;;10.49;100.00;101493.64;1813736;79;26220;-73
2021/05/19 04:19:42;;;;;;;2.17;1.10;;;;;;;10.56;100.00;101497.59;1815443;79;26212;-73
2021/05/19 04:22:11;;;;;;;2.80;1.43;;;;;;;10.61;100.00;101501.20;1819564;79;26714;-72
2021/05/19 04:24:41;;;;;;;2.53;1.20;;;;;;;10.60;100.00;101499.56;1819680;79;26468;-73
2021/05/19 04:27:11;;;;;;;4.87;2.00;;;;;;;10.56;100.00;101497.04;1819776;79;26223;-73
2021/05/19 04:29:41;;;;;;;2.10;1.07;;;;;;;10.59;100.00;101494.27;1819776;79;26285;-73
2021/05/19 04:32:11;;;;;;;2.47;1.33;;;;;;;10.56;100.00;101498.43;1819762;79;26297;-72
2021/05/19 04:34:41;;;;;;;4.03;1.90;;;;;;;10.60;100.00;101499.56;1819679;79;26738;-73
2021/05/19 04:37:10;;;;;;;3.53;1.27;;;;;;;10.57;100.00;101498.69;1819617;79;26220;-73
2021/05/19 04:39:40;;;;;;;3.10;1.43;;;;;;;10.54;100.00;101499.23;1819737;79;26705;-73
2021/05/19 04:42:10;;;;;;;3.67;1.67;;;;;;;10.46;100.00;101501.13;1819662;79;26290;-73
2021/05/19 04:44:40;;;;;;;4.10;1.60;;;;;;;10.55;100.00;101502.30;1819739;79;26203;-73
2021/05/19 04:47:10;;;;;;;4.17;1.97;;;;;;;10.48;100.00;101507.27;1819672;79;26220;-73
2021/05/19 04:49:40;;;;;;;2.23;1.60;;;;;;;10.56;100.00;101501.20;1819789;79;26224;-73
2021/05/19 04:52:10;;;;;;;5.93;1.53;;;;;;;10.55;100.00;101509.25;1819666;79;26375;-73
2021/05/19 04:54:39;;;;;;;3.40;1.57;;;;;;;10.66;100.00;101518.46;1819761;79;26250;-73
2021/05/19 04:57:09;;;;;;;3.40;1.83;;;;;;;10.61;100.00;101516.48;1819642;79;26213;-73
2021/05/19 04:59:39;;;;;;;3.97;2.00;;;;;;;10.64;100.00;101511.80;1819756;79;26275;-73
2021/05/19 05:02:09;;;;;;;8.07;2.00;;;;;;;10.59;100.00;101510.38;1819719;79;26279;-73
2021/05/19 05:04:39;;;;;;;3.83;1.80;;;;;;;10.48;100.00;101512.83;1819717;79;26212;-73
2021/05/19 05:07:09;;;;;;;2.60;1.60;;;;;;;10.50;100.00;101523.94;1819700;79;26204;-73
2021/05/19 05:09:39;;;;;;;7.50;2.03;;;;;;;10.53;100.00;101521.17;1819771;79;26712;-73
2021/05/19 05:12:10;;;;;;;3.40;1.77;;;;;;;10.65;100.00;101520.43;1818310;79;26278;-73
2021/05/19 05:14:40;;;;;;;4.47;1.70;;;;;;;10.58;100.00;101522.59;1816194;79;26216;-73
2021/05/19 05:17:10;;;;;;;4.03;1.87;;;;;;;10.62;100.00;101527.89;1819766;79;26631;-73
2021/05/19 05:19:40;;;;;;;7.10;2.20;;;;;;;10.59;100.00;101527.59;1819754;79;26228;-73
2021/05/19 05:22:09;;;;;;;4.63;2.07;;;;;;;10.66;100.00;101533.74;1819787;79;26216;-73
2021/05/19 05:24:40;;;;;;;4.00;1.97;;;;;;;10.68;100.00;101537.94;1819698;79;26739;-73
2021/05/19 05:27:10;;;;;;;3.87;1.93;;;;;;;10.60;100.00;101541.23;1819672;79;26309;-73
2021/05/19 05:29:40;;;;;;;5.60;2.50;;;;;;;10.68;100.00;101544.05;1819660;79;26657;-73
2021/05/19 05:32:10;;;;;;;4.67;2.20;;;;;;;10.70;100.00;101544.05;1819671;79;26290;-73
2021/05/19 05:34:40;;;;;;;6.20;1.93;;;;;;;10.76;100.00;101542.98;1819691;79;26647;-73
2021/05/19 05:37:10;;;;;;;4.30;1.93;;;;;;;10.73;100.00;101542.70;1819632;79;26382;-73
2021/05/19 05:39:40;;;;;;;5.03;2.23;;;;;;;10.75;100.00;101540.47;1819659;79;26660;-73
2021/05/19 05:42:10;;;;;;;3.63;2.30;;;;;;;10.67;100.00;101540.43;1819665;79;26288;-73
2021/05/19 05:44:41;;;;;;;3.67;2.20;;;;;;;10.80;100.00;101546.89;1819669;79;26296;-73
2021/05/19 05:47:10;;;;;;;4.60;2.30;;;;;;;10.74;100.00;101547.96;1819649;79;26639;-73
2021/05/19 05:49:40;;;;;;;2.83;2.33;;;;;;;10.73;100.00;101557.43;1819679;79;26293;-73
2021/05/19 05:52:10;;;;;;;4.83;2.87;;;;;;;10.65;100.00;101549.61;1819714;79;26339;-73
2021/05/19 05:54:40;;;;;;;3.67;2.30;;;;;;;10.70;100.00;101552.39;1819632;79;26225;-73
2021/05/19 05:57:10;;;;;;;4.33;2.60;;;;;;;10.72;100.00;101554.91;1819637;79;26220;-73
2021/05/19 05:59:40;;;;;;;3.13;2.20;;;;;;;10.70;100.00;101556.55;1819674;79;26215;-73
2021/05/19 06:02:10;;;;;;;3.73;2.40;;;;;;;10.75;100.00;101555.20;1819645;79;26298;-73
2021/05/19 06:04:40;;;;;;;7.77;2.93;;;;;;;10.66;100.00;101558.20;1819729;79;26200;-73
2021/05/19 06:07:10;;;;;;;3.90;2.50;;;;;;;10.77;100.00;101561.89;1819742;79;26694;-73
2021/05/19 06:09:42;;;;;;;3.77;2.73;;;;;;;10.71;100.00;101559.63;1819764;79;26205;-72
2021/05/19 06:12:12;;;;;;;4.37;2.57;;;;;;;10.77;100.00;101564.12;1820095;79;26207;-73
2021/05/19 06:14:42;;;;;;;5.50;3.00;;;;;;;10.74;100.00;101566.02;1830262;78;26255;-73
2021/05/19 06:17:13;;;;;;;5.70;2.90;;;;;;;10.70;100.00;101569.61;1830775;78;26227;-72
2021/05/19 06:19:44;;;;;;;6.23;3.03;;;;;;;10.69;100.00;101578.52;1830733;78;26263;-73
2021/05/19 06:22:13;;;;;;;3.20;2.57;;;;;;;10.68;100.00;101580.17;1830713;78;26245;-71
2021/05/19 06:24:43;;;;;;;5.73;3.30;;;;;;;10.63;100.00;101575.41;1830793;78;26321;-73
2021/05/19 06:27:13;;;;;;;5.37;3.20;;;;;;;10.72;100.00;101584.08;1827956;78;26334;-72
2021/05/19 06:29:43;;;;;;;8.37;3.53;;;;;;;10.70;100.00;101589.05;1819830;79;26306;-73
2021/05/19 06:32:13;;;;;;;4.87;2.90;;;;;;;10.75;100.00;101596.88;1819771;79;26263;-73
2021/05/19 06:34:42;;;;;;;7.83;3.47;;;;;;;10.75;100.00;101599.66;1819748;79;26263;-72
2021/05/19 06:37:12;;;;;;;6.13;3.13;;;;;;;10.76;100.00;101608.29;1819732;79;26481;-72
2021/05/19 06:39:43;;;;;;;4.67;3.00;;;;;;;10.82;100.00;101610.02;1819877;79;26733;-72
2021/05/19 06:42:13;;;;;;;3.73;3.07;;;;;;;10.75;100.00;101605.22;1819813;79;26266;-72
2021/05/19 06:44:43;;;;;;;4.60;3.20;;;;;;;10.78;100.00;101608.84;1819904;79;26312;-72
2021/05/19 06:47:13;;;;;;;4.63;3.23;;;;;;;10.77;100.00;101611.91;1820286;78;26244;-72
2021/05/19 06:49:43;;;;;;;3.90;3.20;;;;;;;10.75;100.00;101616.34;1819578;79;26259;-72
2021/05/19 06:52:12;;;;;;;4.47;3.07;;;;;;;10.88;100.00;101615.02;1819700;79;26713;-72
2021/05/19 06:54:42;;;;;;;4.63;2.93;;;;;;;10.96;100.00;101615.35;1819904;78;26233;-72
2021/05/19 06:57:12;;;;;;;3.73;3.20;;;;;;;11.03;100.00;101626.25;1819852;79;26220;-72
2021/05/19 06:59:42;;;;;;;4.23;3.23;;;;;;;11.06;100.00;101624.86;1819792;79;26715;-72
2021/05/19 07:02:12;;;;;;;4.80;3.50;;;;;;;11.20;100.00;101627.45;1819898;79;26249;-72
2021/05/19 07:04:42;;;;;;;4.50;3.17;;;;;;;11.27;100.00;101633.05;1819764;79;26271;-73
2021/05/19 07:07:11;;;;;;;6.37;4.03;;;;;;;11.33;100.00;101636.14;1819726;79;26274;-72
2021/05/19 07:09:42;;;;;;;3.50;3.20;;;;;;;11.35;100.00;101631.68;1819751;79;26640;-72
2021/05/19 07:12:12;;;;;;;3.43;3.13;;;;;;;11.38;100.00;101635.33;1819729;79;26212;-73
2021/05/19 07:14:47;;;;;;;4.30;3.90;;;;;;;11.32;100.00;101637.24;1815932;79;26812;-72
2021/05/19 07:17:18;;;;;;;5.87;3.93;;;;;;;11.46;100.00;101641.77;1818602;79;26293;-72
2021/05/19 07:19:47;;;;;;;5.17;4.20;;;;;;;11.54;100.00;101641.23;1819692;79;26689;-72
2021/05/19 07:22:17;;;;;;;5.63;4.13;;;;;;;11.64;100.00;101648.76;1819738;79;26282;-73
2021/05/19 07:24:47;;;;;;;5.27;4.77;;;;;;;11.72;100.00;101645.51;1819709;79;26208;-73
2021/05/19 07:27:18;;;;;;;4.80;4.33;;;;;;;11.79;100.00;101642.73;1819707;79;26669;-74
2021/05/19 07:29:47;;;;;;;6.20;4.67;;;;;;;11.80;100.00;101640.80;1819793;79;26208;-74
2021/05/19 07:32:17;;;;;;;5.37;4.30;;;;;;;11.85;100.00;101648.58;1819746;79;26664;-72
2021/05/19 07:34:47;;;;;;;6.73;4.20;;;;;;;11.96;100.00;101654.19;1819749;79;26275;-74
2021/05/19 07:37:17;;;;;;;4.30;3.90;;;;;;;11.95;100.00;101657.52;1819786;79;26219;-74
2021/05/19 07:39:47;;;;;;;5.10;4.13;;;;;;;12.03;100.00;101661.70;1819767;79;26214;-73
2021/05/19 07:42:18;;;;;;;4.97;4.47;;;;;;;12.02;100.00;101662.84;1819818;79;26261;-73
2021/05/19 07:44:48;;;;;;;4.70;4.10;;;;;;;12.26;100.00;101664.83;1819737;79;26220;-73
2021/05/19 07:47:18;;;;;;;6.80;4.30;;;;;;;12.31;100.00;101661.22;1819707;79;26300;-74
2021/05/19 07:49:48;;;;;;;5.87;3.87;;;;;;;12.25;100.00;101660.37;1819743;79;26216;-73
2021/05/19 07:52:18;;;;;;;6.20;3.47;;;;;;;12.28;100.00;101663.98;1819773;79;26290;-73
2021/05/19 07:54:48;;;;;;;5.90;4.30;;;;;;;12.18;100.00;101665.94;1819764;79;26664;-74
2021/05/19 07:57:22;;;;;;;6.37;4.37;;;;;;;12.18;100.00;101666.78;1819707;79;26244;-73
2021/05/19 08:00:06;;;;;;;4.57;3.87;;;;;;;12.39;100.00;101670.42;1819698;78;26282;-73
2021/05/19 08:02:22;;;;;;;4.43;4.03;;;;;;;12.51;100.00;101675.16;1817322;78;26722;-73
2021/05/19 08:04:52;;;;;;;6.27;4.10;;;;;;;12.64;100.00;101660.66;1819696;79;26686;-74
2021/05/19 08:07:22;;;;;;;4.70;3.83;;;;;;;12.84;100.00;101668.17;1819765;79;26209;-74
2021/05/19 08:09:52;;;;;;;5.57;4.10;;;;;;;12.80;100.00;101671.23;1819667;79;26660;-74
2021/05/19 08:12:22;;;;;;;5.10;4.00;;;;;;;13.14;100.00;101672.89;1819786;79;26387;-74
2021/05/19 08:14:51;;;;;;;4.77;3.83;;;;;;;13.36;100.00;101670.60;1823619;78;26369;-73
2021/05/19 08:17:21;;;;;;;4.07;3.70;;;;;;;13.41;100.00;101674.78;1830742;78;26648;-73
2021/05/19 08:19:51;;;;;;;3.70;3.33;;;;;;;13.46;100.00;101681.75;1830675;78;26631;-73
2021/05/19 08:22:21;;;;;;;4.77;3.80;;;;;;;13.67;100.00;101667.98;1820379;78;26243;-73
2021/05/19 08:24:51;;;;;;;6.80;3.63;;;;;;;13.56;100.00;101678.09;1819803;79;26274;-74
2021/05/19 08:27:21;;;;;;;4.30;3.37;;;;;;;13.89;100.00;101664.80;1819670;79;26200;-74
2021/05/19 08:29:53;;;;;;;4.13;3.27;;;;;;;14.19;100.00;101668.53;1819817;79;26218;-74
2021/05/19 08:32:23;;;;;;;2.70;2.50;;;;;;;14.11;100.00;101664.40;1819688;79;26640;-74
2021/05/19 08:34:53;;;;;;;3.40;2.67;;;;;;;14.21;100.00;101662.91;1819678;79;26294;-74
2021/05/19 08:37:22;;;;;;;2.87;2.50;;;;;;;14.64;100.00;101654.78;1819762;79;26220;-73
2021/05/19 08:39:52;;;;;;;3.03;2.40;;;;;;;14.79;100.00;101650.47;1819736;79;26222;-74
2021/05/19 08:42:22;;;;;;;2.33;1.83;;;;;;;14.93;100.00;101657.87;1819682;79;26224;-73
2021/05/19 08:44:52;;;;;;;2.87;1.73;;;;;;;14.74;100.00;101649.11;1819699;79;26652;-74
2021/05/19 08:47:25;;;;;;;1.57;1.40;;;;;;;14.44;100.00;101655.80;1819694;79;26275;-73
2021/05/19 08:49:55;;;;;;;2.57;1.73;;;;;;;14.30;100.00;101659.78;1819817;79;26762;-73
2021/05/19 08:52:25;;;;;;;1.77;1.67;;;;;;;13.87;100.00;101668.98;1819796;79;26212;-74
2021/05/19 08:54:55;;;;;;;1.70;1.33;;;;;;;14.03;100.00;101667.80;1819702;79;26259;-74
2021/05/19 08:57:25;;;;;;;1.87;1.43;;;;;;;14.22;100.00;101673.53;1819664;79;26717;-74
2021/05/19 08:59:55;;;;;;;2.30;1.60;;;;;;;14.58;100.00;101670.80;1819822;79;26304;-74
2021/05/19 09:02:25;;;;;;;2.43;1.80;;;;;;;14.62;100.00;101671.05;1819673;79;26687;-74
2021/05/19 09:05:01;;;;;;;2.00;1.30;;;;;;;15.14;100.00;101664.67;1819635;79;26208;-74
2021/05/19 09:07:30;;;;;;;1.10;1.00;;;;;;;15.17;100.00;101667.71;1819733;79;26216;-74
2021/05/19 09:10:17;;;;;;;1.77;1.40;;;;;;;15.15;100.00;101664.36;1819709;79;26204;-74
2021/05/19 09:12:48;;;;;;;2.77;1.40;;;;;;;15.56;100.00;101661.14;1819742;79;26228;-74
2021/05/19 09:15:18;;;;;;;1.60;1.10;;;;;;;15.55;100.00;101660.30;1822036;78;26325;-74
2021/05/19 09:17:56;;;;;;;3.03;1.53;;;;;;;15.69;100.00;101666.86;1821493;78;26208;-74
2021/05/19 09:20:26;;;;;;;2.27;1.20;;;;;;;15.76;100.00;101664.52;1819688;79;26655;-74
2021/05/19 09:23:06;;;;;;;1.77;1.13;;;;;;;15.68;100.00;101674.14;1819702;79;26715;-74
2021/05/19 09:25:36;;;;;;;3.23;1.33;;;;;;;15.55;100.00;101673.47;1819663;79;26302;-74
2021/05/19 09:28:08;;;;;;;1.63;0.90;;;;;;;15.69;100.00;101682.27;1819805;79;26278;-74
2021/05/19 09:30:42;;;;;;;2.50;1.20;;;;;;;15.68;100.00;101684.79;1819658;79;26212;-74
2021/05/19 09:33:16;;;;;;;1.57;1.10;;;;;;;15.61;100.00;101681.53;1819646;79;26212;-74
2021/05/19 09:35:47;;;;;;;2.03;1.30;;;;;;;15.56;100.00;101691.95;1819679;79;26302;-73
2021/05/19 09:38:31;;;;;;;2.23;1.10;;;;;;;15.65;100.00;101697.16;1819726;79;26772;-74
2021/05/19 09:41:22;;;;;;;1.90;1.20;;;;;;;15.83;100.00;101694.38;1819736;78;26537;-73
2021/05/19 09:43:56;;;;;;;2.27;1.07;;;;;;;15.98;100.00;101699.53;1819653;79;26667;-73
2021/05/19 09:46:34;;;;;;;1.07;0.80;;;;;;;15.86;100.00;101697.17;1819670;79;26220;-73
2021/05/19 09:49:17;;;;;;;2.17;1.10;;;;;;;15.58;100.00;101705.91;1818541;77;26658;-73
2021/05/19 09:51:50;;;;;;;1.47;1.00;;;;;;;15.89;100.00;101706.37;1819709;79;26667;-74
2021/05/19 09:54:31;;;;;;;2.33;1.10;;;;;;;15.91;100.00;101711.13;1819769;79;26212;-74
2021/05/19 09:57:03;;;;;;;1.63;1.40;;;;;;;16.00;100.00;101710.72;1819868;79;26243;-74
2021/05/19 09:59:33;;;;;;;1.33;0.90;;;;;;;16.17;100.00;101715.81;1819665;79;26288;-74
2021/05/19 10:02:06;;;;;;;2.20;1.37;;;;;;;15.76;100.00;101722.50;1819724;79;26266;-74
2021/05/19 10:04:38;;;;;;;1.13;1.13;;;;;;;15.72;100.00;101727.88;1819720;79;26302;-74
2021/05/19 10:07:12;;;;;;;1.63;1.00;;;;;;;15.80;100.00;101714.61;1819924;79;26240;-74
2021/05/19 10:09:41;;;;;;;1.07;0.90;;;;;;;16.19;100.00;101721.37;1819653;79;26299;-74
2021/05/19 10:12:13;;;;;;;1.57;0.87;;;;;;;15.85;100.00;101723.52;1819706;79;26220;-74
2021/05/19 10:14:44;;;;;;;1.00;0.80;;;;;;;16.05;100.00;101722.41;1819641;79;26752;-74
2021/05/19 10:17:16;;;;;;;1.97;0.87;;;;;;;16.01;100.00;101726.38;1815189;79;26356;-74
2021/05/19 10:19:49;;;;;;;0.97;0.70;;;;;;;15.98;100.00;101734.00;1813579;79;26232;-74
2021/05/19 10:22:21;;;;;;;1.43;1.03;;;;;;;15.77;100.00;101736.78;1813675;79;26208;-74
2021/05/19 10:24:58;;;;;;;1.63;0.90;;;;;;;15.79;100.00;101732.53;1819271;79;26232;-74
2021/05/19 10:27:26;;;;;;;1.17;0.90;;;;;;;15.99;100.00;101733.43;1818993;78;26726;-74
2021/05/19 10:29:59;;;;;;;1.53;0.93;;;;;;;16.14;100.00;101739.66;1819674;79;26283;-74
2021/05/19 10:32:36;;;;;;;2.23;0.90;;;;;;;16.02;100.00;101739.83;1819603;79;26216;-74
2021/05/19 10:35:11;;;;;;;2.03;0.80;;;;;;;15.85;100.00;101753.77;1819732;79;26296;-74
2021/05/19 10:37:49;;;;;;;1.80;0.90;;;;;;;16.04;100.00;101752.98;1819721;79;26717;-74
2021/05/19 10:40:35;;;;;;;1.30;0.80;;;;;;;16.39;100.00;101761.73;1819647;78;26293;-74
2021/05/19 10:43:06;;;;;;;1.53;0.70;;;;;;;16.49;100.00;101766.37;1819639;79;26777;-74
2021/05/19 10:45:56;;;;;;;1.57;0.70;;;;;;;16.47;100.00;101756.04;1819671;79;26230;-74
2021/05/19 10:48:31;;;;;;;0.80;0.70;;;;;;;16.66;100.00;101767.27;1819812;79;26255;-74
2021/05/19 10:51:22;;;;;;;1.17;1.00;;;;;;;16.49;100.00;101770.58;1819698;79;26196;-74
2021/05/19 11:00:14;;;;;;;1.10;0.80;;;;;;;16.40;100.00;101769.02;1819848;79;26234;-75
2021/05/19 11:03:16;;;;;;;0.93;0.90;;;;;;;16.58;100.00;101765.15;1819785;79;26759;-73
2021/05/19 11:06:20;;;;;;;1.67;1.17;;;;;;;16.70;100.00;101757.94;1819920;79;26406;-73
2021/05/19 11:08:50;;;;;;;1.83;0.90;;;;;;;16.90;100.00;101760.17;1819765;79;26219;-73
2021/05/19 11:11:30;;;;;;;1.47;0.80;;;;;;;16.72;100.00;101757.08;1819767;79;26363;-73
2021/05/19 11:14:19;;;;;;;2.67;0.90;;;;;;;16.54;100.00;101755.64;1819973;79;26254;-73
2021/05/19 11:17:10;;;;;;;1.40;1.00;;;;;;;16.60;100.00;101753.88;1817804;77;26270;-73
2021/05/19 11:19:38;;;;;;;1.33;1.10;;;;;;;16.66;100.00;101750.44;1812971;78;26227;-73
2021/05/19 11:22:11;;;;;;;2.30;0.90;;;;;;;16.73;100.00;101755.92;1818642;79;26665;-73
2021/05/19 11:25:13;;;;;;;2.10;0.80;;;;;;;16.85;100.00;101752.67;1819794;79;26231;-73
2021/05/19 11:27:42;;;;;;;2.03;0.57;;;;;;;16.62;100.00;101762.84;1814628;77;26226;-73
2021/05/19 11:30:25;;;;;;;1.30;0.80;;;;;;;16.44;100.00;101753.81;1819775;79;26225;-73
2021/05/19 11:33:05;;;;;;;0.80;0.80;;;;;;;16.54;100.00;101754.24;1819377;77;26705;-73
2021/05/19 11:35:35;;;;;;;0.80;0.80;;;;;;;16.76;100.00;101754.50;1819866;79;26255;-73
2021/05/19 11:38:07;;;;;;;3.43;1.40;;;;;;;16.79;100.00;101749.67;1819759;79;26340;-73
2021/05/19 11:40:42;;;;;;;1.03;0.60;;;;;;;16.92;100.00;101760.13;1819745;79;26228;-73
2021/05/19 11:43:15;;;;;;;1.20;0.60;;;;;;;17.00;100.00;101756.62;1819790;79;26223;-73
2021/05/19 11:45:48;;;;;;;1.00;0.70;;;;;;;17.14;100.00;101756.67;1819878;79;26785;-73